createdAt,value
2022-07-25T00:01:25.893Z,99.90
2022-07-25T00:03:58.382Z,99.90
2022-07-25T00:06:26.317Z,99.90
2022-07-25T00:08:54.162Z,99.90
2022-07-25T00:11:22.119Z,99.90
2022-07-25T00:13:51.336Z,99.90
2022-07-25T00:16:19.726Z,99.90
2022-07-25T00:18:47.986Z,99.90
2022-07-25T00:21:16.011Z,99.90
2022-07-25T00:23:44.014Z,99.90
2022-07-25T00:26:12.047Z,99.90
2022-07-25T00:28:40.270Z,99.90
2022-07-25T00:31:24.921Z,99.90
2022-07-25T00:33:53.107Z,99.90
2022-07-25T00:36:21.435Z,99.90
2022-07-25T00:39:07.782Z,99.90
2022-07-25T00:41:52.194Z,99.90
2022-07-25T00:44:24.533Z,99.90
2022-07-25T00:46:54.241Z,99.90
2022-07-25T00:49:22.223Z,99.90
2022-07-25T00:51:50.965Z,99.90
2022-07-25T00:54:18.847Z,99.90
2022-07-25T00:56:47.099Z,99.90
2022-07-25T00:59:14.971Z,99.90
2022-07-25T01:01:42.996Z,99.90
2022-07-25T01:04:12.311Z,99.90
2022-07-25T01:06:40.357Z,99.90
2022-07-25T01:09:08.298Z,99.90
2022-07-25T01:11:36.230Z,99.90
2022-07-25T01:14:04.513Z,99.90
2022-07-25T01:16:32.790Z,99.90
2022-07-25T01:19:00.702Z,99.90
2022-07-25T01:21:29.945Z,99.90
2022-07-25T01:23:58.117Z,99.90
2022-07-25T01:26:26.189Z,99.90
2022-07-25T01:28:54.977Z,99.90
2022-07-25T01:31:23.227Z,99.90
2022-07-25T01:33:51.179Z,99.90
2022-07-25T01:36:21.951Z,99.90
2022-07-25T01:38:51.134Z,99.90
2022-07-25T01:41:22.643Z,99.90
2022-07-25T01:43:50.729Z,99.90
2022-07-25T01:46:19.008Z,99.90
2022-07-25T01:48:46.911Z,99.90
2022-07-25T01:51:15.018Z,99.90
2022-07-25T01:53:48.464Z,99.90
2022-07-25T01:56:17.986Z,99.90
2022-07-25T01:58:49.715Z,99.90
2022-07-25T02:01:17.738Z,99.90
2022-07-25T02:03:49.474Z,99.90
2022-07-25T02:06:18.887Z,99.90
2022-07-25T02:08:46.784Z,99.90
2022-07-25T02:11:14.669Z,99.90
2022-07-25T02:13:44.629Z,99.90
2022-07-25T02:16:12.732Z,99.90
2022-07-25T02:18:40.642Z,99.90
2022-07-25T02:21:14.291Z,99.90
2022-07-25T02:23:42.770Z,99.90
2022-07-25T02:26:10.688Z,99.90
2022-07-25T02:28:38.507Z,99.90
2022-07-25T02:31:08.082Z,99.90
2022-07-25T02:33:36.199Z,99.90
2022-07-25T02:36:04.140Z,99.90
2022-07-25T02:38:31.996Z,99.90
2022-07-25T02:40:59.833Z,99.90
2022-07-25T02:43:27.695Z,99.90
2022-07-25T02:45:55.600Z,99.90
2022-07-25T02:48:24.929Z,99.90
2022-07-25T02:50:52.773Z,99.90
2022-07-25T02:53:34.236Z,99.90
2022-07-25T02:56:09.058Z,99.90
2022-07-25T02:58:36.928Z,99.90
2022-07-25T03:01:07.388Z,99.90
2022-07-25T03:03:36.712Z,99.90
2022-07-25T03:06:04.672Z,99.90
2022-07-25T03:08:32.569Z,99.90
2022-07-25T03:11:00.409Z,99.90
2022-07-25T03:13:28.273Z,99.90
2022-07-25T03:15:57.088Z,99.90
2022-07-25T03:18:24.994Z,99.90
2022-07-25T03:20:54.281Z,99.90
2022-07-25T03:23:22.192Z,99.90
2022-07-25T03:25:50.194Z,99.90
2022-07-25T03:28:18.318Z,99.90
2022-07-25T03:30:46.169Z,99.90
2022-07-25T03:33:14.043Z,99.90
2022-07-25T03:35:41.887Z,99.90
2022-07-25T03:38:11.259Z,99.90
2022-07-25T03:40:39.593Z,99.90
2022-07-25T03:43:07.915Z,99.90
2022-07-25T03:45:35.863Z,99.90
2022-07-25T03:48:03.821Z,99.90
2022-07-25T03:50:31.674Z,99.90
2022-07-25T03:52:59.552Z,99.90
2022-07-25T03:55:29.000Z,99.90
2022-07-25T03:57:56.863Z,99.90
2022-07-25T04:00:24.759Z,99.90
2022-07-25T04:02:53.036Z,99.90
2022-07-25T04:05:21.347Z,99.90
2022-07-25T04:07:49.194Z,99.90
2022-07-25T04:10:17.514Z,99.90
2022-07-25T04:12:46.734Z,99.90
2022-07-25T04:15:14.626Z,99.90
2022-07-25T04:17:44.208Z,99.90
2022-07-25T04:20:13.829Z,99.90
2022-07-25T04:22:44.875Z,99.90
2022-07-25T04:25:14.722Z,99.90
2022-07-25T04:27:42.589Z,99.90
2022-07-25T04:30:13.333Z,99.90
2022-07-25T04:32:52.072Z,99.90
2022-07-25T04:35:19.936Z,99.90
2022-07-25T04:37:47.805Z,99.90
2022-07-25T04:40:15.831Z,99.90
2022-07-25T04:42:43.661Z,99.90
2022-07-25T04:45:13.111Z,99.90
2022-07-25T04:47:41.079Z,99.90
2022-07-25T04:50:09.946Z,99.90
2022-07-25T04:52:37.868Z,99.90
2022-07-25T04:55:06.495Z,99.90
2022-07-25T04:57:34.364Z,99.90
2022-07-25T05:00:02.225Z,99.90
2022-07-25T05:02:31.516Z,99.90
2022-07-25T05:04:59.492Z,99.90
2022-07-25T05:07:30.948Z,99.90
2022-07-25T05:09:58.808Z,99.90
2022-07-25T05:12:26.641Z,99.90
2022-07-25T05:14:55.146Z,99.90
2022-07-25T05:17:23.104Z,99.90
2022-07-25T05:19:52.345Z,99.90
2022-07-25T05:22:20.960Z,99.90
2022-07-25T05:24:50.874Z,99.90
2022-07-25T05:27:18.681Z,99.90
2022-07-25T05:29:46.600Z,99.90
2022-07-25T05:32:14.438Z,99.90
2022-07-25T05:34:42.319Z,99.90
2022-07-25T05:37:11.525Z,99.90
2022-07-25T05:39:40.378Z,99.90
2022-07-25T05:42:08.332Z,99.90
2022-07-25T05:44:36.165Z,99.90
2022-07-25T05:47:04.036Z,99.90
2022-07-25T05:49:31.946Z,99.90
2022-07-25T05:51:59.782Z,99.90
2022-07-25T05:54:29.126Z,99.90
2022-07-25T05:56:56.952Z,99.90
2022-07-25T05:59:24.803Z,99.90
2022-07-25T06:01:52.778Z,99.90
2022-07-25T06:04:25.401Z,99.90
2022-07-25T06:06:54.963Z,99.90
2022-07-25T06:09:23.145Z,99.90
2022-07-25T06:12:00.378Z,99.90
2022-07-25T06:14:29.862Z,99.90
2022-07-25T06:16:57.766Z,99.90
2022-07-25T06:19:25.615Z,99.90
2022-07-25T06:21:53.458Z,99.90
2022-07-25T06:24:21.359Z,99.90
2022-07-25T06:26:49.249Z,99.90
2022-07-25T06:29:18.515Z,99.90
2022-07-25T06:31:47.427Z,99.90
2022-07-25T06:34:15.429Z,99.90
2022-07-25T06:36:43.298Z,99.90
2022-07-25T06:39:11.316Z,99.90
2022-07-25T06:41:39.169Z,99.90
2022-07-25T06:44:07.514Z,99.90
2022-07-25T06:46:37.221Z,99.90
2022-07-25T06:49:05.182Z,99.90
2022-07-25T06:51:33.089Z,99.90
2022-07-25T06:54:01.243Z,99.90
2022-07-25T06:56:31.527Z,99.90
2022-07-25T06:58:59.454Z,99.90
2022-07-25T07:01:27.496Z,99.90
2022-07-25T07:03:56.838Z,99.90
2022-07-25T07:06:24.726Z,99.90
2022-07-25T07:08:53.030Z,99.90
2022-07-25T07:11:21.040Z,99.90
2022-07-25T07:13:48.877Z,99.90
2022-07-25T07:16:16.773Z,99.90
2022-07-25T07:18:48.840Z,99.90
2022-07-25T07:21:21.470Z,99.90
2022-07-25T07:23:49.652Z,99.90
2022-07-25T07:26:21.753Z,99.90
2022-07-25T07:28:49.604Z,99.90
2022-07-25T07:31:18.296Z,99.90
2022-07-25T07:33:46.671Z,99.90
2022-07-25T07:36:14.757Z,99.90
2022-07-25T07:38:44.549Z,99.90
2022-07-25T07:41:12.983Z,99.90
2022-07-25T07:43:40.916Z,99.90
2022-07-25T07:46:08.915Z,99.90
2022-07-25T07:48:36.874Z,99.90
2022-07-25T07:51:05.129Z,99.90
2022-07-25T07:53:50.500Z,99.90
2022-07-25T07:56:20.056Z,99.90
2022-07-25T07:58:48.023Z,99.90
2022-07-25T08:01:16.134Z,99.90
2022-07-25T08:03:44.094Z,99.90
2022-07-25T08:06:11.972Z,99.90
2022-07-25T08:08:39.813Z,99.90
2022-07-25T08:11:07.762Z,99.90
2022-07-25T08:13:38.136Z,99.90
2022-07-25T08:16:07.016Z,99.90
2022-07-25T08:18:35.124Z,99.90
2022-07-25T08:21:06.018Z,99.90
2022-07-25T08:23:35.371Z,99.90
2022-07-25T08:26:04.086Z,99.90
2022-07-25T08:28:32.011Z,99.90
2022-07-25T08:31:01.335Z,99.90
2022-07-25T08:33:29.844Z,99.90
2022-07-25T08:35:58.831Z,99.90
2022-07-25T08:38:27.632Z,99.90
2022-07-25T08:40:55.797Z,99.90
2022-07-25T08:43:24.140Z,99.90
2022-07-25T08:45:53.353Z,99.90
2022-07-25T08:48:24.098Z,99.90
2022-07-25T08:50:52.403Z,99.90
2022-07-25T08:53:36.387Z,97.70
2022-07-25T08:56:10.662Z,99.90
2022-07-25T08:58:41.395Z,99.90
2022-07-25T09:01:09.619Z,92.70
2022-07-25T09:03:38.916Z,99.10
2022-07-25T09:06:16.089Z,74.10
2022-07-25T09:08:52.610Z,77.70
2022-07-25T09:11:28.175Z,64.40
2022-07-25T09:14:00.507Z,46.40
2022-07-25T09:16:32.506Z,31.80
2022-07-25T09:19:12.647Z,31.10
2022-07-25T09:21:40.929Z,31.10
2022-07-25T09:24:10.565Z,22.60
2022-07-25T09:26:49.162Z,26.90
2022-07-25T09:29:21.620Z,30.70
2022-07-25T09:31:49.532Z,23.40
2022-07-25T09:34:35.892Z,28.50
2022-07-25T09:37:04.368Z,23.00
2022-07-25T09:39:38.752Z,17.70
2022-07-25T09:42:17.470Z,23.00
2022-07-25T09:44:45.453Z,20.20
2022-07-25T09:47:13.635Z,18.10
2022-07-25T09:49:47.639Z,14.20
2022-07-25T09:52:17.269Z,8.90
2022-07-25T09:54:45.175Z,10.80
2022-07-25T09:57:13.221Z,2.70
2022-07-25T09:59:41.153Z,3.80
2022-07-25T10:02:10.786Z,2.30
2022-07-25T10:04:46.686Z,1.00
2022-07-25T10:07:15.767Z,1.00
2022-07-25T10:09:45.313Z,2.30
2022-07-25T10:12:14.210Z,1.00
2022-07-25T10:14:42.102Z,1.00
2022-07-25T10:17:10.107Z,1.00
2022-07-25T10:19:47.410Z,1.00
2022-07-25T10:22:34.352Z,1.00
2022-07-25T10:25:13.273Z,1.00
2022-07-25T10:27:45.027Z,1.00
2022-07-25T10:30:21.092Z,1.00
2022-07-25T10:32:52.500Z,1.00
2022-07-25T10:35:20.577Z,1.00
2022-07-25T10:37:51.613Z,1.00
2022-07-25T10:40:29.843Z,1.00
2022-07-25T10:43:01.785Z,1.00
2022-07-25T10:45:38.564Z,1.00
2022-07-25T10:48:10.960Z,1.00
2022-07-25T10:50:56.861Z,1.00
2022-07-25T10:53:39.849Z,1.00
2022-07-25T10:56:09.188Z,1.00
2022-07-25T10:58:50.992Z,1.00
2022-07-25T11:01:23.259Z,1.00
2022-07-25T11:03:51.372Z,1.00
2022-07-25T11:06:30.810Z,1.00
2022-07-25T11:09:01.194Z,1.00
2022-07-25T11:11:39.730Z,1.00
2022-07-25T11:14:15.630Z,1.00
2022-07-25T11:16:44.395Z,1.00
2022-07-25T11:19:22.323Z,1.00
2022-07-25T11:21:51.631Z,1.00
2022-07-25T11:24:20.916Z,1.00
2022-07-25T11:26:49.521Z,1.00
2022-07-25T11:29:25.130Z,1.00
2022-07-25T11:31:54.527Z,1.00
2022-07-25T11:34:24.462Z,1.00
2022-07-25T11:36:55.225Z,1.00
2022-07-25T11:39:26.059Z,1.00
2022-07-25T11:42:02.597Z,1.00
2022-07-25T11:44:37.161Z,1.00
2022-07-25T11:47:05.692Z,1.00
2022-07-25T11:49:33.941Z,1.00
2022-07-25T11:52:01.819Z,1.00
2022-07-25T11:54:31.107Z,1.00
2022-07-25T11:56:58.977Z,1.00
2022-07-25T11:59:27.160Z,1.00
2022-07-25T12:01:55.257Z,1.00
2022-07-25T12:04:23.281Z,1.00
2022-07-25T12:06:51.188Z,1.00
2022-07-25T12:09:19.956Z,1.00
2022-07-25T12:11:49.703Z,1.00
2022-07-25T12:14:17.573Z,1.00
2022-07-25T12:16:45.637Z,1.00
2022-07-25T12:19:19.920Z,1.00
2022-07-25T12:21:47.838Z,1.00
2022-07-25T12:24:15.772Z,1.00
2022-07-25T12:26:43.625Z,1.00
2022-07-25T12:29:12.836Z,1.00
2022-07-25T12:31:40.664Z,1.00
2022-07-25T12:34:08.511Z,1.00
2022-07-25T12:36:41.150Z,1.00
2022-07-25T12:39:09.429Z,1.00
2022-07-25T12:41:37.593Z,1.00
2022-07-25T12:44:05.701Z,1.00
2022-07-25T12:46:36.022Z,1.00
2022-07-25T12:49:04.248Z,1.00
2022-07-25T12:51:32.413Z,1.00
2022-07-25T12:54:00.347Z,1.00
2022-07-25T12:56:28.219Z,1.00
2022-07-25T12:58:56.094Z,1.00
2022-07-25T13:01:24.006Z,1.00
2022-07-25T13:03:53.229Z,1.00
2022-07-25T13:06:21.139Z,1.00
2022-07-25T13:08:49.084Z,1.00
2022-07-25T13:11:16.953Z,1.00
2022-07-25T13:13:44.867Z,1.00
2022-07-25T13:16:12.771Z,1.00
2022-07-25T13:18:40.627Z,1.00
2022-07-25T13:21:09.824Z,1.00
2022-07-25T13:23:37.725Z,1.00
2022-07-25T13:26:05.586Z,1.00
2022-07-25T13:28:33.541Z,1.00
2022-07-25T13:31:01.778Z,1.00
2022-07-25T13:33:29.642Z,1.00
2022-07-25T13:35:57.477Z,1.00
2022-07-25T13:38:26.686Z,1.00
2022-07-25T13:40:58.808Z,1.00
2022-07-25T13:43:27.013Z,1.00
2022-07-25T13:45:54.960Z,1.00
2022-07-25T13:48:30.850Z,1.00
2022-07-25T13:50:59.785Z,1.00
2022-07-25T13:53:30.559Z,1.00
2022-07-25T13:56:00.391Z,1.00
2022-07-25T13:58:28.344Z,1.00
2022-07-25T14:00:56.315Z,1.00
2022-07-25T14:03:24.211Z,1.00
2022-07-25T14:05:52.058Z,1.00
2022-07-25T14:08:20.090Z,1.00
2022-07-25T14:10:49.323Z,1.00
2022-07-25T14:13:17.154Z,1.00
2022-07-25T14:15:45.327Z,1.00
2022-07-25T14:18:13.149Z,1.00
2022-07-25T14:20:40.999Z,1.00
2022-07-25T14:23:08.830Z,1.00
2022-07-25T14:25:37.454Z,1.00
2022-07-25T14:28:06.682Z,1.00
2022-07-25T14:30:34.567Z,1.00
2022-07-25T14:33:02.825Z,1.00
2022-07-25T14:35:32.768Z,1.00
2022-07-25T14:38:00.848Z,1.00
2022-07-25T14:40:28.952Z,1.00
2022-07-25T14:42:56.782Z,1.00
2022-07-25T14:45:25.974Z,1.00
2022-07-25T14:47:53.960Z,1.00
2022-07-25T14:50:21.982Z,1.00
2022-07-25T14:52:49.821Z,1.00
2022-07-25T14:55:18.747Z,1.00
2022-07-25T14:57:46.585Z,1.00
2022-07-25T15:00:15.330Z,1.00
2022-07-25T15:02:44.645Z,1.00
2022-07-25T15:05:12.570Z,1.00
2022-07-25T15:07:40.492Z,1.00
2022-07-25T15:10:08.958Z,1.00
2022-07-25T15:12:36.786Z,1.00
2022-07-25T15:15:05.313Z,1.00
2022-07-25T15:17:33.662Z,1.00
2022-07-25T15:20:03.233Z,1.00
2022-07-25T15:22:32.355Z,1.00
2022-07-25T15:25:45.093Z,1.00
2022-07-25T15:27:48.124Z,1.00
2022-07-25T15:30:17.126Z,1.00
2022-07-25T15:32:45.765Z,1.00
2022-07-25T15:35:15.015Z,6.10
2022-07-25T15:37:42.858Z,10.80
2022-07-25T15:40:12.089Z,1.00
2022-07-25T15:42:40.008Z,1.00
2022-07-25T15:45:32.111Z,1.00
2022-07-25T15:47:57.320Z,1.00
2022-07-25T15:50:26.523Z,1.00
2022-07-25T15:52:54.405Z,1.00
2022-07-25T15:55:22.326Z,1.00
2022-07-25T15:57:50.218Z,1.00
2022-07-25T16:00:18.254Z,1.00
2022-07-25T16:02:46.561Z,1.00
2022-07-25T16:05:14.435Z,1.00
2022-07-25T16:07:43.719Z,1.00
2022-07-25T16:10:11.731Z,1.00
2022-07-25T16:12:39.705Z,1.00
2022-07-25T16:15:08.705Z,1.00
2022-07-25T16:17:37.183Z,1.00
2022-07-25T16:20:06.620Z,1.00
2022-07-25T16:22:34.469Z,1.00
2022-07-25T16:25:04.148Z,1.00
2022-07-25T16:27:32.012Z,1.00
2022-07-25T16:29:59.958Z,1.00
2022-07-25T16:32:27.823Z,1.00
2022-07-25T16:34:55.658Z,1.00
2022-07-25T16:37:23.511Z,1.00
2022-07-25T16:39:51.359Z,1.00
2022-07-25T16:42:20.542Z,1.00
2022-07-25T16:44:49.335Z,1.00
2022-07-25T16:47:17.280Z,1.00
2022-07-25T16:49:45.250Z,1.00
2022-07-25T16:52:13.126Z,1.00
2022-07-25T16:54:42.252Z,1.00
2022-07-25T16:57:10.122Z,1.00
2022-07-25T16:59:39.375Z,1.00
2022-07-25T17:02:07.396Z,1.00
2022-07-25T17:04:35.776Z,1.00
2022-07-25T17:07:03.684Z,1.00
2022-07-25T17:09:32.045Z,1.00
2022-07-25T17:11:59.889Z,1.00
2022-07-25T17:14:30.163Z,1.00
2022-07-25T17:16:59.758Z,1.00
2022-07-25T17:19:27.616Z,1.00
2022-07-25T17:21:55.463Z,1.00
2022-07-25T17:24:23.285Z,1.00
2022-07-25T17:26:51.117Z,1.00
2022-07-25T17:29:18.976Z,1.00
2022-07-25T17:31:46.954Z,1.00
2022-07-25T17:34:16.205Z,1.00
2022-07-25T17:36:44.070Z,1.00
2022-07-25T17:39:11.896Z,1.00
2022-07-25T17:41:39.786Z,1.00
2022-07-25T17:44:11.767Z,1.00
2022-07-25T17:46:40.278Z,1.00
2022-07-25T17:49:08.183Z,1.00
2022-07-25T17:51:37.405Z,1.00
2022-07-25T17:54:05.885Z,1.00
2022-07-25T17:56:34.137Z,1.00
2022-07-25T17:59:02.469Z,1.00
2022-07-25T18:01:30.347Z,1.00
2022-07-25T18:03:58.312Z,1.00
2022-07-25T18:06:29.741Z,1.00
2022-07-25T18:08:59.310Z,1.00
2022-07-25T18:11:27.711Z,1.70
2022-07-25T18:13:55.579Z,3.10
2022-07-25T18:16:23.695Z,4.20
2022-07-25T18:18:51.596Z,1.00
2022-07-25T18:21:19.486Z,1.00
2022-07-25T18:23:47.393Z,5.50
2022-07-25T18:26:16.594Z,1.00
2022-07-25T18:28:44.476Z,1.00
2022-07-25T18:31:12.561Z,4.90
2022-07-25T18:33:40.483Z,5.70
2022-07-25T18:36:08.680Z,7.50
2022-07-25T18:38:36.969Z,11.30
2022-07-25T18:41:27.949Z,12.20
2022-07-25T18:43:54.406Z,16.10
2022-07-25T18:46:22.376Z,14.30
2022-07-25T18:48:51.321Z,18.30
2022-07-25T18:51:19.221Z,15.70
2022-07-25T18:53:48.604Z,19.80
2022-07-25T18:56:17.031Z,22.20
2022-07-25T18:58:44.969Z,21.90
2022-07-25T19:01:14.430Z,28.40
2022-07-25T19:03:42.344Z,26.90
2022-07-25T19:06:10.321Z,27.30
2022-07-25T19:08:38.294Z,30.10
2022-07-25T19:11:06.136Z,27.70
2022-07-25T19:13:53.376Z,30.00
2022-07-25T19:16:22.588Z,38.80
2022-07-25T19:18:51.294Z,53.40
2022-07-25T19:21:19.120Z,40.60
2022-07-25T19:23:50.949Z,35.70
2022-07-25T19:26:19.515Z,37.20
2022-07-25T19:28:47.440Z,38.80
2022-07-25T19:31:15.403Z,39.00
2022-07-25T19:33:45.884Z,40.10
2022-07-25T19:36:13.804Z,40.10
2022-07-25T19:38:41.661Z,43.20
2022-07-25T19:41:09.668Z,51.10
2022-07-25T19:43:37.532Z,51.10
2022-07-25T19:46:05.451Z,51.30
2022-07-25T19:48:33.482Z,56.60
2022-07-25T19:51:03.110Z,56.50
2022-07-25T19:53:31.662Z,56.30
2022-07-25T19:55:59.521Z,57.50
2022-07-25T19:58:27.353Z,66.90
2022-07-25T20:00:55.211Z,66.90
2022-07-25T20:03:23.760Z,88.60
2022-07-25T20:05:52.065Z,99.90
2022-07-25T20:08:21.270Z,99.90
2022-07-25T20:10:49.312Z,99.90
2022-07-25T20:13:17.176Z,99.90
2022-07-25T20:15:45.122Z,99.90
2022-07-25T20:18:17.481Z,99.90
2022-07-25T20:20:47.398Z,99.90
2022-07-25T20:23:15.276Z,99.90
2022-07-25T20:25:44.673Z,99.90
2022-07-25T20:28:12.532Z,99.90
2022-07-25T20:30:40.486Z,99.90
2022-07-25T20:33:09.514Z,99.90
2022-07-25T20:35:37.977Z,99.90
2022-07-25T20:38:09.227Z,99.90
2022-07-25T20:40:38.083Z,99.90
2022-07-25T20:43:08.895Z,99.90
2022-07-25T20:45:36.856Z,99.90
2022-07-25T20:48:04.930Z,99.90
2022-07-25T20:50:32.788Z,99.90
2022-07-25T20:53:00.800Z,99.90
2022-07-25T20:55:29.127Z,99.90
2022-07-25T20:57:56.933Z,99.90
2022-07-25T21:00:27.672Z,99.90
2022-07-25T21:02:55.653Z,99.90
2022-07-25T21:05:24.113Z,99.90
2022-07-25T21:07:51.922Z,99.90
2022-07-25T21:10:19.758Z,99.90
2022-07-25T21:12:47.612Z,99.90
2022-07-25T21:15:15.698Z,99.90
2022-07-25T21:17:45.007Z,99.90
2022-07-25T21:20:13.930Z,99.90
2022-07-25T21:22:42.030Z,99.90
2022-07-25T21:25:11.184Z,99.90
2022-07-25T21:27:39.070Z,99.90
2022-07-25T21:30:08.177Z,99.90
2022-07-25T21:32:36.002Z,99.90
2022-07-25T21:35:06.118Z,99.90
2022-07-25T21:37:33.969Z,99.90
2022-07-25T21:40:01.807Z,99.90
2022-07-25T21:42:29.643Z,99.90
2022-07-25T21:44:57.481Z,99.90
2022-07-25T21:47:25.312Z,99.90
2022-07-25T21:50:10.781Z,99.90
2022-07-25T21:52:42.418Z,99.90
2022-07-25T21:55:10.445Z,99.90
2022-07-25T21:57:38.450Z,99.90
2022-07-25T22:00:08.026Z,99.90
2022-07-25T22:02:35.892Z,99.90
2022-07-25T22:05:03.728Z,99.90
2022-07-25T22:07:31.589Z,99.90
2022-07-25T22:10:00.832Z,99.90
2022-07-25T22:12:28.695Z,99.90
2022-07-25T22:14:56.527Z,99.90
2022-07-25T22:17:24.353Z,99.90
2022-07-25T22:19:52.201Z,99.90
2022-07-25T22:22:20.037Z,99.90
2022-07-25T22:24:47.897Z,99.90
2022-07-25T22:27:17.103Z,99.90
2022-07-25T22:29:44.954Z,99.90
2022-07-25T22:32:13.421Z,99.90
2022-07-25T22:34:41.236Z,99.90
2022-07-25T22:37:09.077Z,99.90
2022-07-25T22:39:36.902Z,99.90
2022-07-25T22:42:05.129Z,99.90
2022-07-25T22:44:34.302Z,99.90
2022-07-25T22:47:02.141Z,99.90
2022-07-25T22:49:30.046Z,99.90
2022-07-25T22:51:57.899Z,99.90
2022-07-25T22:54:25.870Z,99.90
2022-07-25T22:56:53.694Z,99.90
2022-07-25T22:59:21.537Z,99.90
2022-07-25T23:01:50.698Z,99.90
2022-07-25T23:04:18.601Z,99.90
2022-07-25T23:06:46.513Z,99.90
2022-07-25T23:09:14.478Z,99.90
2022-07-25T23:11:42.354Z,99.90
2022-07-25T23:14:10.169Z,99.90
2022-07-25T23:16:38.060Z,99.90
2022-07-25T23:19:07.545Z,99.90
2022-07-25T23:21:35.657Z,99.90
2022-07-25T23:24:03.464Z,99.90
2022-07-25T23:26:31.287Z,99.90
2022-07-25T23:28:59.153Z,99.90
2022-07-25T23:31:27.213Z,99.90
2022-07-25T23:33:55.049Z,99.90
2022-07-25T23:36:24.197Z,99.90
2022-07-25T23:38:51.988Z,99.90
2022-07-25T23:41:19.811Z,99.90
2022-07-25T23:43:56.947Z,99.90
2022-07-25T23:46:29.408Z,99.90
2022-07-25T23:48:59.032Z,99.90
2022-07-25T23:51:32.208Z,99.90
2022-07-25T23:54:00.287Z,99.90
2022-07-25T23:56:28.119Z,99.90
2022-07-25T23:58:55.945Z,99.90
